sensor_id;sensor_type;location;lat;lon;timestamp;P1;durP1;ratioP1;P2;durP2;ratioP2
24681;SDS011;12802;53.390;-2.328;2023-11-22T00:00:35;19.45;;;13.07;;
24681;SDS011;12802;53.390;-2.328;2023-11-22T00:03:01;20.17;;;11.95;;
24681;SDS011;12802;53.390;-2.328;2023-11-22T00:05:27;17.05;;;11.95;;
24681;SDS011;12802;53.390;-2.328;2023-11-22T00:07:53;21.58;;;11.80;;
24681;SDS011;12802;53.390;-2.328;2023-11-22T00:10:19;17.60;;;12.10;;
24681;SDS011;12802;53.390;-2.328;2023-11-22T00:12:45;16.92;;;12.23;;
24681;SDS011;12802;53.390;-2.328;2023-11-22T00:15:11;18.80;;;11.40;;
24681;SDS011;12802;53.390;-2.328;2023-11-22T00:17:37;20.90;;;12.98;;
24681;SDS011;12802;53.390;-2.328;2023-11-22T00:20:04;21.23;;;13.05;;
24681;SDS011;12802;53.390;-2.328;2023-11-22T00:22:33;15.43;;;12.00;;
24681;SDS011;12802;53.390;-2.328;2023-11-22T00:25:00;20.77;;;12.48;;
24681;SDS011;12802;53.390;-2.328;2023-11-22T00:27:27;18.25;;;13.02;;
24681;SDS011;12802;53.390;-2.328;2023-11-22T00:29:55;18.33;;;13.32;;
24681;SDS011;12802;53.390;-2.328;2023-11-22T00:32:21;18.98;;;12.95;;
24681;SDS011;12802;53.390;-2.328;2023-11-22T00:34:47;20.58;;;13.95;;
24681;SDS011;12802;53.390;-2.328;2023-11-22T00:37:13;20.58;;;13.40;;
24681;SDS011;12802;53.390;-2.328;2023-11-22T00:39:40;20.17;;;13.10;;
24681;SDS011;12802;53.390;-2.328;2023-11-22T00:42:07;23.17;;;12.68;;
24681;SDS011;12802;53.390;-2.328;2023-11-22T00:44:33;21.60;;;13.13;;
24681;SDS011;12802;53.390;-2.328;2023-11-22T00:47:01;21.00;;;12.02;;
24681;SDS011;12802;53.390;-2.328;2023-11-22T00:49:27;15.82;;;12.52;;
24681;SDS011;12802;53.390;-2.328;2023-11-22T00:51:53;19.23;;;12.68;;
24681;SDS011;12802;53.390;-2.328;2023-11-22T00:54:20;21.98;;;12.38;;
24681;SDS011;12802;53.390;-2.328;2023-11-22T00:56:46;17.63;;;12.57;;
24681;SDS011;12802;53.390;-2.328;2023-11-22T00:59:12;21.17;;;13.07;;
24681;SDS011;12802;53.390;-2.328;2023-11-22T01:01:39;20.55;;;13.18;;
24681;SDS011;12802;53.390;-2.328;2023-11-22T01:04:06;17.85;;;12.68;;
24681;SDS011;12802;53.390;-2.328;2023-11-22T01:06:33;16.45;;;11.63;;
24681;SDS011;12802;53.390;-2.328;2023-11-22T01:09:00;15.82;;;11.95;;
24681;SDS011;12802;53.390;-2.328;2023-11-22T01:11:26;20.15;;;12.18;;
24681;SDS011;12802;53.390;-2.328;2023-11-22T01:13:52;16.88;;;11.77;;
24681;SDS011;12802;53.390;-2.328;2023-11-22T01:16:18;21.48;;;12.05;;
24681;SDS011;12802;53.390;-2.328;2023-11-22T01:18:44;17.65;;;12.20;;
24681;SDS011;12802;53.390;-2.328;2023-11-22T01:21:11;21.30;;;13.38;;
24681;SDS011;12802;53.390;-2.328;2023-11-22T01:23:37;16.67;;;12.23;;
24681;SDS011;12802;53.390;-2.328;2023-11-22T01:26:03;17.17;;;11.50;;
24681;SDS011;12802;53.390;-2.328;2023-11-22T01:28:30;21.98;;;11.73;;
24681;SDS011;12802;53.390;-2.328;2023-11-22T01:31:00;22.25;;;11.63;;
24681;SDS011;12802;53.390;-2.328;2023-11-22T01:33:29;16.60;;;11.45;;
24681;SDS011;12802;53.390;-2.328;2023-11-22T01:35:57;19.02;;;11.07;;
24681;SDS011;12802;53.390;-2.328;2023-11-22T01:38:24;17.23;;;12.07;;
24681;SDS011;12802;53.390;-2.328;2023-11-22T01:40:50;18.17;;;11.35;;
24681;SDS011;12802;53.390;-2.328;2023-11-22T01:43:17;17.65;;;10.40;;
24681;SDS011;12802;53.390;-2.328;2023-11-22T01:45:44;14.98;;;10.20;;
24681;SDS011;12802;53.390;-2.328;2023-11-22T01:48:10;19.48;;;10.70;;
24681;SDS011;12802;53.390;-2.328;2023-11-22T01:50:37;19.80;;;10.50;;
24681;SDS011;12802;53.390;-2.328;2023-11-22T01:53:06;16.77;;;10.15;;
24681;SDS011;12802;53.390;-2.328;2023-11-22T01:55:33;18.38;;;10.73;;
24681;SDS011;12802;53.390;-2.328;2023-11-22T01:58:00;17.83;;;10.60;;
24681;SDS011;12802;53.390;-2.328;2023-11-22T02:00:27;20.35;;;10.50;;
24681;SDS011;12802;53.390;-2.328;2023-11-22T02:02:57;16.38;;;10.07;;
24681;SDS011;12802;53.390;-2.328;2023-11-22T02:05:25;18.30;;;9.45;;
24681;SDS011;12802;53.390;-2.328;2023-11-22T02:07:51;14.80;;;9.05;;
24681;SDS011;12802;53.390;-2.328;2023-11-22T02:10:18;16.73;;;8.55;;
24681;SDS011;12802;53.390;-2.328;2023-11-22T02:12:44;15.27;;;8.90;;
24681;SDS011;12802;53.390;-2.328;2023-11-22T02:15:10;14.60;;;8.68;;
24681;SDS011;12802;53.390;-2.328;2023-11-22T02:17:36;13.00;;;8.50;;
24681;SDS011;12802;53.390;-2.328;2023-11-22T02:20:03;12.75;;;8.43;;
24681;SDS011;12802;53.390;-2.328;2023-11-22T02:22:33;12.18;;;7.53;;
24681;SDS011;12802;53.390;-2.328;2023-11-22T02:25:00;13.05;;;7.82;;
24681;SDS011;12802;53.390;-2.328;2023-11-22T02:27:27;14.68;;;7.60;;
24681;SDS011;12802;53.390;-2.328;2023-11-22T02:29:53;16.95;;;7.80;;
24681;SDS011;12802;53.390;-2.328;2023-11-22T02:32:19;11.65;;;7.95;;
24681;SDS011;12802;53.390;-2.328;2023-11-22T02:34:45;11.80;;;7.90;;
24681;SDS011;12802;53.390;-2.328;2023-11-22T02:37:11;13.05;;;7.65;;
24681;SDS011;12802;53.390;-2.328;2023-11-22T02:40:23;13.65;;;7.40;;
24681;SDS011;12802;53.390;-2.328;2023-11-22T02:42:25;11.93;;;6.95;;
24681;SDS011;12802;53.390;-2.328;2023-11-22T02:44:51;12.68;;;7.78;;
24681;SDS011;12802;53.390;-2.328;2023-11-22T02:47:17;12.93;;;7.03;;
24681;SDS011;12802;53.390;-2.328;2023-11-22T02:49:43;13.27;;;6.53;;
24681;SDS011;12802;53.390;-2.328;2023-11-22T02:52:09;8.63;;;6.38;;
24681;SDS011;12802;53.390;-2.328;2023-11-22T02:54:37;11.43;;;7.03;;
24681;SDS011;12802;53.390;-2.328;2023-11-22T02:57:03;10.57;;;6.57;;
24681;SDS011;12802;53.390;-2.328;2023-11-22T02:59:29;10.48;;;6.38;;
24681;SDS011;12802;53.390;-2.328;2023-11-22T03:01:56;11.32;;;6.38;;
24681;SDS011;12802;53.390;-2.328;2023-11-22T03:04:22;13.88;;;6.30;;
24681;SDS011;12802;53.390;-2.328;2023-11-22T03:06:48;9.90;;;5.90;;
24681;SDS011;12802;53.390;-2.328;2023-11-22T03:09:14;10.65;;;5.60;;
24681;SDS011;12802;53.390;-2.328;2023-11-22T03:11:40;10.85;;;5.18;;
24681;SDS011;12802;53.390;-2.328;2023-11-22T03:14:07;9.10;;;5.20;;
24681;SDS011;12802;53.390;-2.328;2023-11-22T03:16:34;9.88;;;5.85;;
24681;SDS011;12802;53.390;-2.328;2023-11-22T03:19:00;11.88;;;6.03;;
24681;SDS011;12802;53.390;-2.328;2023-11-22T03:21:27;10.52;;;6.03;;
24681;SDS011;12802;53.390;-2.328;2023-11-22T03:23:53;10.00;;;5.97;;
24681;SDS011;12802;53.390;-2.328;2023-11-22T03:26:20;8.65;;;5.50;;
24681;SDS011;12802;53.390;-2.328;2023-11-22T03:28:46;10.43;;;5.38;;
24681;SDS011;12802;53.390;-2.328;2023-11-22T03:31:13;9.88;;;5.40;;
24681;SDS011;12802;53.390;-2.328;2023-11-22T03:33:40;12.25;;;6.03;;
24681;SDS011;12802;53.390;-2.328;2023-11-22T03:36:06;12.00;;;5.78;;
24681;SDS011;12802;53.390;-2.328;2023-11-22T03:38:32;10.35;;;5.43;;
24681;SDS011;12802;53.390;-2.328;2023-11-22T03:40:58;9.43;;;5.90;;
24681;SDS011;12802;53.390;-2.328;2023-11-22T03:43:24;9.60;;;6.03;;
24681;SDS011;12802;53.390;-2.328;2023-11-22T03:45:53;8.98;;;5.78;;
24681;SDS011;12802;53.390;-2.328;2023-11-22T03:48:19;15.30;;;6.25;;
24681;SDS011;12802;53.390;-2.328;2023-11-22T03:50:47;13.75;;;5.47;;
24681;SDS011;12802;53.390;-2.328;2023-11-22T03:53:13;9.55;;;5.20;;
24681;SDS011;12802;53.390;-2.328;2023-11-22T03:55:39;9.90;;;5.15;;
24681;SDS011;12802;53.390;-2.328;2023-11-22T03:58:05;9.43;;;5.13;;
24681;SDS011;12802;53.390;-2.328;2023-11-22T04:00:33;10.70;;;5.13;;
24681;SDS011;12802;53.390;-2.328;2023-11-22T04:02:59;9.85;;;5.15;;
24681;SDS011;12802;53.390;-2.328;2023-11-22T04:05:27;9.68;;;5.47;;
24681;SDS011;12802;53.390;-2.328;2023-11-22T04:07:53;8.65;;;5.18;;
24681;SDS011;12802;53.390;-2.328;2023-11-22T04:10:19;13.15;;;5.00;;
24681;SDS011;12802;53.390;-2.328;2023-11-22T04:12:46;7.00;;;4.85;;
24681;SDS011;12802;53.390;-2.328;2023-11-22T04:15:13;9.85;;;5.43;;
24681;SDS011;12802;53.390;-2.328;2023-11-22T04:17:42;9.77;;;4.55;;
24681;SDS011;12802;53.390;-2.328;2023-11-22T04:20:08;8.95;;;5.20;;
24681;SDS011;12802;53.390;-2.328;2023-11-22T04:22:35;7.88;;;4.80;;
24681;SDS011;12802;53.390;-2.328;2023-11-22T04:25:02;7.75;;;4.70;;
24681;SDS011;12802;53.390;-2.328;2023-11-22T04:27:29;8.43;;;4.72;;
24681;SDS011;12802;53.390;-2.328;2023-11-22T04:29:55;8.38;;;4.43;;
24681;SDS011;12802;53.390;-2.328;2023-11-22T04:32:21;10.52;;;4.65;;
24681;SDS011;12802;53.390;-2.328;2023-11-22T04:34:47;7.32;;;4.65;;
24681;SDS011;12802;53.390;-2.328;2023-11-22T04:37:13;8.48;;;4.47;;
24681;SDS011;12802;53.390;-2.328;2023-11-22T04:39:40;8.57;;;4.15;;
24681;SDS011;12802;53.390;-2.328;2023-11-22T04:42:06;8.50;;;4.20;;
24681;SDS011;12802;53.390;-2.328;2023-11-22T04:44:32;6.85;;;3.90;;
24681;SDS011;12802;53.390;-2.328;2023-11-22T04:46:58;10.13;;;4.45;;
24681;SDS011;12802;53.390;-2.328;2023-11-22T04:49:24;8.07;;;3.88;;
24681;SDS011;12802;53.390;-2.328;2023-11-22T04:51:51;9.32;;;4.15;;
24681;SDS011;12802;53.390;-2.328;2023-11-22T04:54:17;7.85;;;3.85;;
24681;SDS011;12802;53.390;-2.328;2023-11-22T04:56:43;11.15;;;4.38;;
24681;SDS011;12802;53.390;-2.328;2023-11-22T04:59:09;8.13;;;4.05;;
24681;SDS011;12802;53.390;-2.328;2023-11-22T05:01:35;9.90;;;4.45;;
24681;SDS011;12802;53.390;-2.328;2023-11-22T05:04:02;8.93;;;3.90;;
24681;SDS011;12802;53.390;-2.328;2023-11-22T05:06:28;9.85;;;4.47;;
24681;SDS011;12802;53.390;-2.328;2023-11-22T05:08:54;7.38;;;4.38;;
24681;SDS011;12802;53.390;-2.328;2023-11-22T05:11:20;12.30;;;4.50;;
24681;SDS011;12802;53.390;-2.328;2023-11-22T05:13:47;6.07;;;3.88;;
24681;SDS011;12802;53.390;-2.328;2023-11-22T05:16:15;8.27;;;4.35;;
24681;SDS011;12802;53.390;-2.328;2023-11-22T05:18:41;8.32;;;3.97;;
24681;SDS011;12802;53.390;-2.328;2023-11-22T05:21:07;6.57;;;3.63;;
24681;SDS011;12802;53.390;-2.328;2023-11-22T05:23:33;6.57;;;3.63;;
24681;SDS011;12802;53.390;-2.328;2023-11-22T05:26:02;7.50;;;4.00;;
24681;SDS011;12802;53.390;-2.328;2023-11-22T05:28:30;8.70;;;3.80;;
24681;SDS011;12802;53.390;-2.328;2023-11-22T05:30:56;10.73;;;3.92;;
24681;SDS011;12802;53.390;-2.328;2023-11-22T05:33:22;7.22;;;3.50;;
24681;SDS011;12802;53.390;-2.328;2023-11-22T05:35:49;8.90;;;3.63;;
24681;SDS011;12802;53.390;-2.328;2023-11-22T05:38:15;7.30;;;3.85;;
24681;SDS011;12802;53.390;-2.328;2023-11-22T05:40:41;9.52;;;3.50;;
24681;SDS011;12802;53.390;-2.328;2023-11-22T05:43:08;9.68;;;3.67;;
24681;SDS011;12802;53.390;-2.328;2023-11-22T05:45:35;8.00;;;4.00;;
24681;SDS011;12802;53.390;-2.328;2023-11-22T05:48:01;8.93;;;3.60;;
24681;SDS011;12802;53.390;-2.328;2023-11-22T05:50:27;5.18;;;3.17;;
24681;SDS011;12802;53.390;-2.328;2023-11-22T05:52:53;9.93;;;3.47;;
24681;SDS011;12802;53.390;-2.328;2023-11-22T05:55:19;6.28;;;3.60;;
24681;SDS011;12802;53.390;-2.328;2023-11-22T05:57:47;7.68;;;3.03;;
24681;SDS011;12802;53.390;-2.328;2023-11-22T06:00:13;5.50;;;3.65;;
24681;SDS011;12802;53.390;-2.328;2023-11-22T06:02:41;6.25;;;3.50;;
24681;SDS011;12802;53.390;-2.328;2023-11-22T06:05:07;7.13;;;3.35;;
24681;SDS011;12802;53.390;-2.328;2023-11-22T06:07:34;6.90;;;3.58;;
24681;SDS011;12802;53.390;-2.328;2023-11-22T06:10:00;8.40;;;3.08;;
24681;SDS011;12802;53.390;-2.328;2023-11-22T06:12:27;6.88;;;3.13;;
24681;SDS011;12802;53.390;-2.328;2023-11-22T06:14:53;7.40;;;3.35;;
24681;SDS011;12802;53.390;-2.328;2023-11-22T06:17:20;7.10;;;3.70;;
24681;SDS011;12802;53.390;-2.328;2023-11-22T06:19:46;9.40;;;3.83;;
24681;SDS011;12802;53.390;-2.328;2023-11-22T06:22:12;12.02;;;3.90;;
24681;SDS011;12802;53.390;-2.328;2023-11-22T06:24:38;9.40;;;3.92;;
24681;SDS011;12802;53.390;-2.328;2023-11-22T06:27:04;8.50;;;3.63;;
24681;SDS011;12802;53.390;-2.328;2023-11-22T06:29:30;12.32;;;3.25;;
24681;SDS011;12802;53.390;-2.328;2023-11-22T06:31:56;7.65;;;3.53;;
24681;SDS011;12802;53.390;-2.328;2023-11-22T06:34:23;5.43;;;3.33;;
24681;SDS011;12802;53.390;-2.328;2023-11-22T06:36:49;8.32;;;3.60;;
24681;SDS011;12802;53.390;-2.328;2023-11-22T06:39:15;7.15;;;3.53;;
24681;SDS011;12802;53.390;-2.328;2023-11-22T06:41:42;8.15;;;3.90;;
24681;SDS011;12802;53.390;-2.328;2023-11-22T06:44:08;7.57;;;3.75;;
24681;SDS011;12802;53.390;-2.328;2023-11-22T06:46:35;5.72;;;3.65;;
24681;SDS011;12802;53.390;-2.328;2023-11-22T06:49:01;8.35;;;4.38;;
24681;SDS011;12802;53.390;-2.328;2023-11-22T06:51:27;9.15;;;3.67;;
24681;SDS011;12802;53.390;-2.328;2023-11-22T06:53:53;7.53;;;3.13;;
24681;SDS011;12802;53.390;-2.328;2023-11-22T06:56:19;8.55;;;3.50;;
24681;SDS011;12802;53.390;-2.328;2023-11-22T06:58:45;11.82;;;3.95;;
24681;SDS011;12802;53.390;-2.328;2023-11-22T07:01:12;5.70;;;3.15;;
24681;SDS011;12802;53.390;-2.328;2023-11-22T07:03:38;10.73;;;3.47;;
24681;SDS011;12802;53.390;-2.328;2023-11-22T07:06:05;8.15;;;3.25;;
24681;SDS011;12802;53.390;-2.328;2023-11-22T07:08:33;7.90;;;3.63;;
24681;SDS011;12802;53.390;-2.328;2023-11-22T07:10:59;11.43;;;3.10;;
24681;SDS011;12802;53.390;-2.328;2023-11-22T07:13:27;9.38;;;3.47;;
24681;SDS011;12802;53.390;-2.328;2023-11-22T07:15:53;8.20;;;3.80;;
24681;SDS011;12802;53.390;-2.328;2023-11-22T07:18:19;8.98;;;2.90;;
24681;SDS011;12802;53.390;-2.328;2023-11-22T07:20:49;7.22;;;3.10;;
24681;SDS011;12802;53.390;-2.328;2023-11-22T07:23:15;8.18;;;3.15;;
24681;SDS011;12802;53.390;-2.328;2023-11-22T07:25:41;7.50;;;2.67;;
24681;SDS011;12802;53.390;-2.328;2023-11-22T07:28:08;5.68;;;3.10;;
24681;SDS011;12802;53.390;-2.328;2023-11-22T07:30:34;8.48;;;3.53;;
24681;SDS011;12802;53.390;-2.328;2023-11-22T07:33:03;8.97;;;3.57;;
24681;SDS011;12802;53.390;-2.328;2023-11-22T07:35:31;10.93;;;3.30;;
24681;SDS011;12802;53.390;-2.328;2023-11-22T07:37:57;7.15;;;3.88;;
24681;SDS011;12802;53.390;-2.328;2023-11-22T07:40:23;8.18;;;3.35;;
24681;SDS011;12802;53.390;-2.328;2023-11-22T07:42:49;9.55;;;3.42;;
24681;SDS011;12802;53.390;-2.328;2023-11-22T07:45:15;8.70;;;3.15;;
24681;SDS011;12802;53.390;-2.328;2023-11-22T07:47:42;11.25;;;3.40;;
24681;SDS011;12802;53.390;-2.328;2023-11-22T07:50:08;12.38;;;4.03;;
24681;SDS011;12802;53.390;-2.328;2023-11-22T07:52:36;6.60;;;3.15;;
24681;SDS011;12802;53.390;-2.328;2023-11-22T07:55:04;6.22;;;3.00;;
24681;SDS011;12802;53.390;-2.328;2023-11-22T07:57:36;9.35;;;3.47;;
24681;SDS011;12802;53.390;-2.328;2023-11-22T08:00:04;11.98;;;3.55;;
24681;SDS011;12802;53.390;-2.328;2023-11-22T08:02:36;8.68;;;3.53;;
24681;SDS011;12802;53.390;-2.328;2023-11-22T08:05:07;9.38;;;3.90;;
24681;SDS011;12802;53.390;-2.328;2023-11-22T08:07:37;10.73;;;3.28;;
24681;SDS011;12802;53.390;-2.328;2023-11-22T08:10:09;10.15;;;3.72;;
24681;SDS011;12802;53.390;-2.328;2023-11-22T08:12:42;9.32;;;3.30;;
24681;SDS011;12802;53.390;-2.328;2023-11-22T08:15:12;7.80;;;3.35;;
24681;SDS011;12802;53.390;-2.328;2023-11-22T08:17:39;8.95;;;3.30;;
24681;SDS011;12802;53.390;-2.328;2023-11-22T08:20:05;8.73;;;3.42;;
24681;SDS011;12802;53.390;-2.328;2023-11-22T08:22:32;9.18;;;3.70;;
24681;SDS011;12802;53.390;-2.328;2023-11-22T08:25:03;6.55;;;2.80;;
24681;SDS011;12802;53.390;-2.328;2023-11-22T08:27:29;7.93;;;3.10;;
24681;SDS011;12802;53.390;-2.328;2023-11-22T08:29:56;9.52;;;2.90;;
24681;SDS011;12802;53.390;-2.328;2023-11-22T08:32:22;9.35;;;3.55;;
24681;SDS011;12802;53.390;-2.328;2023-11-22T08:34:52;6.82;;;3.20;;
24681;SDS011;12802;53.390;-2.328;2023-11-22T08:37:19;9.02;;;3.05;;
24681;SDS011;12802;53.390;-2.328;2023-11-22T08:39:45;9.82;;;3.42;;
24681;SDS011;12802;53.390;-2.328;2023-11-22T08:42:11;4.68;;;2.90;;
24681;SDS011;12802;53.390;-2.328;2023-11-22T08:44:38;6.68;;;3.13;;
24681;SDS011;12802;53.390;-2.328;2023-11-22T08:47:04;11.20;;;3.30;;
24681;SDS011;12802;53.390;-2.328;2023-11-22T08:49:30;7.85;;;3.00;;
24681;SDS011;12802;53.390;-2.328;2023-11-22T08:51:56;9.13;;;2.92;;
24681;SDS011;12802;53.390;-2.328;2023-11-22T08:54:24;7.00;;;2.40;;
24681;SDS011;12802;53.390;-2.328;2023-11-22T08:56:54;7.15;;;3.35;;
24681;SDS011;12802;53.390;-2.328;2023-11-22T09:01:49;9.52;;;2.63;;
24681;SDS011;12802;53.390;-2.328;2023-11-22T09:04:15;8.77;;;3.25;;
24681;SDS011;12802;53.390;-2.328;2023-11-22T09:06:41;11.73;;;3.03;;
24681;SDS011;12802;53.390;-2.328;2023-11-22T09:09:08;11.23;;;2.63;;
24681;SDS011;12802;53.390;-2.328;2023-11-22T09:11:34;7.65;;;2.40;;
24681;SDS011;12802;53.390;-2.328;2023-11-22T09:14:00;7.05;;;2.35;;
24681;SDS011;12802;53.390;-2.328;2023-11-22T09:16:39;7.72;;;2.78;;
24681;SDS011;12802;53.390;-2.328;2023-11-22T09:19:05;7.68;;;2.75;;
24681;SDS011;12802;53.390;-2.328;2023-11-22T09:21:32;10.40;;;2.90;;
24681;SDS011;12802;53.390;-2.328;2023-11-22T09:23:58;8.75;;;3.08;;
24681;SDS011;12802;53.390;-2.328;2023-11-22T09:26:24;8.10;;;2.30;;
24681;SDS011;12802;53.390;-2.328;2023-11-22T09:28:50;8.38;;;2.67;;
24681;SDS011;12802;53.390;-2.328;2023-11-22T09:31:17;8.98;;;2.97;;
24681;SDS011;12802;53.390;-2.328;2023-11-22T09:33:45;9.07;;;2.70;;
24681;SDS011;12802;53.390;-2.328;2023-11-22T09:36:14;15.57;;;3.35;;
24681;SDS011;12802;53.390;-2.328;2023-11-22T09:38:41;11.88;;;2.72;;
24681;SDS011;12802;53.390;-2.328;2023-11-22T09:41:07;11.10;;;2.25;;
24681;SDS011;12802;53.390;-2.328;2023-11-22T09:43:33;7.57;;;2.60;;
24681;SDS011;12802;53.390;-2.328;2023-11-22T09:46:00;7.88;;;2.90;;
24681;SDS011;12802;53.390;-2.328;2023-11-22T09:48:26;9.85;;;3.33;;
24681;SDS011;12802;53.390;-2.328;2023-11-22T09:55:53;10.23;;;2.90;;
24681;SDS011;12802;53.390;-2.328;2023-11-22T09:58:19;11.90;;;3.22;;
24681;SDS011;12802;53.390;-2.328;2023-11-22T10:00:46;11.02;;;3.50;;
24681;SDS011;12802;53.390;-2.328;2023-11-22T10:03:12;11.60;;;3.25;;
24681;SDS011;12802;53.390;-2.328;2023-11-22T10:05:41;17.77;;;3.80;;
24681;SDS011;12802;53.390;-2.328;2023-11-22T10:08:07;7.32;;;3.10;;
24681;SDS011;12802;53.390;-2.328;2023-11-22T10:10:36;11.18;;;3.58;;
24681;SDS011;12802;53.390;-2.328;2023-11-22T10:13:03;13.38;;;3.65;;
24681;SDS011;12802;53.390;-2.328;2023-11-22T10:15:30;13.75;;;3.30;;
24681;SDS011;12802;53.390;-2.328;2023-11-22T10:17:59;11.75;;;4.35;;
24681;SDS011;12802;53.390;-2.328;2023-11-22T10:20:36;15.80;;;3.72;;
24681;SDS011;12802;53.390;-2.328;2023-11-22T10:23:03;12.88;;;3.92;;
24681;SDS011;12802;53.390;-2.328;2023-11-22T10:25:30;9.25;;;3.15;;
24681;SDS011;12802;53.390;-2.328;2023-11-22T10:27:57;10.43;;;3.63;;
24681;SDS011;12802;53.390;-2.328;2023-11-22T10:30:23;7.18;;;3.17;;
24681;SDS011;12802;53.390;-2.328;2023-11-22T10:32:52;7.60;;;3.20;;
24681;SDS011;12802;53.390;-2.328;2023-11-22T10:35:19;9.45;;;3.28;;
24681;SDS011;12802;53.390;-2.328;2023-11-22T10:37:47;13.55;;;3.40;;
24681;SDS011;12802;53.390;-2.328;2023-11-22T10:40:13;17.55;;;4.10;;
24681;SDS011;12802;53.390;-2.328;2023-11-22T10:42:41;13.00;;;4.10;;
24681;SDS011;12802;53.390;-2.328;2023-11-22T10:45:08;20.88;;;4.05;;
24681;SDS011;12802;53.390;-2.328;2023-11-22T10:47:36;14.35;;;4.10;;
24681;SDS011;12802;53.390;-2.328;2023-11-22T10:50:04;12.40;;;4.38;;
24681;SDS011;12802;53.390;-2.328;2023-11-22T10:52:32;14.55;;;4.32;;
24681;SDS011;12802;53.390;-2.328;2023-11-22T10:55:02;10.52;;;4.47;;
24681;SDS011;12802;53.390;-2.328;2023-11-22T10:57:30;12.25;;;4.10;;
24681;SDS011;12802;53.390;-2.328;2023-11-22T10:59:57;10.75;;;4.63;;
24681;SDS011;12802;53.390;-2.328;2023-11-22T11:02:26;10.80;;;4.97;;
24681;SDS011;12802;53.390;-2.328;2023-11-22T11:04:59;8.65;;;5.18;;
24681;SDS011;12802;53.390;-2.328;2023-11-22T11:07:32;13.63;;;5.60;;
24681;SDS011;12802;53.390;-2.328;2023-11-22T11:10:01;12.93;;;5.15;;
24681;SDS011;12802;53.390;-2.328;2023-11-22T11:12:27;11.80;;;4.13;;
24681;SDS011;12802;53.390;-2.328;2023-11-22T11:14:53;9.85;;;4.15;;
24681;SDS011;12802;53.390;-2.328;2023-11-22T11:17:20;8.07;;;3.72;;
24681;SDS011;12802;53.390;-2.328;2023-11-22T11:19:46;8.23;;;3.63;;
24681;SDS011;12802;53.390;-2.328;2023-11-22T11:22:12;12.73;;;4.15;;
24681;SDS011;12802;53.390;-2.328;2023-11-22T11:24:39;10.35;;;3.50;;
24681;SDS011;12802;53.390;-2.328;2023-11-22T11:27:09;12.80;;;3.50;;
24681;SDS011;12802;53.390;-2.328;2023-11-22T11:29:36;8.35;;;3.15;;
24681;SDS011;12802;53.390;-2.328;2023-11-22T11:32:15;11.55;;;3.03;;
24681;SDS011;12802;53.390;-2.328;2023-11-22T11:34:48;10.80;;;3.00;;
24681;SDS011;12802;53.390;-2.328;2023-11-22T11:37:14;8.85;;;3.05;;
24681;SDS011;12802;53.390;-2.328;2023-11-22T11:39:41;6.93;;;2.90;;
24681;SDS011;12802;53.390;-2.328;2023-11-22T11:42:10;9.63;;;3.20;;
24681;SDS011;12802;53.390;-2.328;2023-11-22T11:44:50;10.30;;;2.92;;
24681;SDS011;12802;53.390;-2.328;2023-11-22T11:47:17;5.80;;;2.58;;
24681;SDS011;12802;53.390;-2.328;2023-11-22T11:49:43;5.05;;;2.67;;
24681;SDS011;12802;53.390;-2.328;2023-11-22T11:52:10;7.72;;;2.80;;
24681;SDS011;12802;53.390;-2.328;2023-11-22T11:54:36;5.97;;;3.00;;
24681;SDS011;12802;53.390;-2.328;2023-11-22T11:57:04;6.80;;;1.98;;
24681;SDS011;12802;53.390;-2.328;2023-11-22T11:59:31;11.35;;;2.10;;
24681;SDS011;12802;53.390;-2.328;2023-11-22T12:01:59;3.97;;;1.75;;
24681;SDS011;12802;53.390;-2.328;2023-11-22T12:04:25;5.22;;;1.92;;
24681;SDS011;12802;53.390;-2.328;2023-11-22T12:06:51;11.27;;;1.98;;
24681;SDS011;12802;53.390;-2.328;2023-11-22T12:09:24;8.77;;;2.40;;
24681;SDS011;12802;53.390;-2.328;2023-11-22T12:11:51;8.48;;;2.03;;
24681;SDS011;12802;53.390;-2.328;2023-11-22T12:14:18;5.82;;;1.80;;
24681;SDS011;12802;53.390;-2.328;2023-11-22T12:16:45;6.57;;;1.52;;
24681;SDS011;12802;53.390;-2.328;2023-11-22T12:19:23;4.60;;;1.35;;
24681;SDS011;12802;53.390;-2.328;2023-11-22T12:21:50;6.97;;;1.35;;
24681;SDS011;12802;53.390;-2.328;2023-11-22T12:24:16;3.50;;;1.15;;
24681;SDS011;12802;53.390;-2.328;2023-11-22T12:26:46;3.10;;;1.00;;
24681;SDS011;12802;53.390;-2.328;2023-11-22T12:29:14;3.58;;;0.70;;
24681;SDS011;12802;53.390;-2.328;2023-11-22T12:31:45;4.85;;;0.77;;
24681;SDS011;12802;53.390;-2.328;2023-11-22T12:34:12;2.88;;;1.00;;
24681;SDS011;12802;53.390;-2.328;2023-11-22T12:36:39;4.10;;;0.75;;
24681;SDS011;12802;53.390;-2.328;2023-11-22T12:39:09;3.03;;;0.65;;
24681;SDS011;12802;53.390;-2.328;2023-11-22T12:41:46;6.32;;;0.80;;
24681;SDS011;12802;53.390;-2.328;2023-11-22T12:44:13;4.50;;;0.52;;
24681;SDS011;12802;53.390;-2.328;2023-11-22T12:46:49;5.13;;;0.70;;
24681;SDS011;12802;53.390;-2.328;2023-11-22T12:49:28;2.03;;;0.60;;
24681;SDS011;12802;53.390;-2.328;2023-11-22T12:51:54;2.65;;;0.70;;
24681;SDS011;12802;53.390;-2.328;2023-11-22T12:54:22;3.67;;;0.82;;
24681;SDS011;12802;53.390;-2.328;2023-11-22T12:56:51;4.10;;;0.80;;
24681;SDS011;12802;53.390;-2.328;2023-11-22T12:59:24;2.80;;;0.50;;
24681;SDS011;12802;53.390;-2.328;2023-11-22T13:01:53;2.95;;;0.50;;
24681;SDS011;12802;53.390;-2.328;2023-11-22T13:04:19;3.92;;;0.80;;
24681;SDS011;12802;53.390;-2.328;2023-11-22T13:06:45;3.53;;;0.70;;
24681;SDS011;12802;53.390;-2.328;2023-11-22T13:09:11;4.97;;;0.70;;
24681;SDS011;12802;53.390;-2.328;2023-11-22T13:11:42;3.35;;;0.80;;
24681;SDS011;12802;53.390;-2.328;2023-11-22T13:16:41;3.95;;;0.77;;
24681;SDS011;12802;53.390;-2.328;2023-11-22T13:19:08;5.03;;;1.02;;
24681;SDS011;12802;53.390;-2.328;2023-11-22T13:21:34;5.53;;;0.60;;
24681;SDS011;12802;53.390;-2.328;2023-11-22T13:24:00;6.80;;;1.00;;
24681;SDS011;12802;53.390;-2.328;2023-11-22T13:26:26;5.47;;;0.77;;
24681;SDS011;12802;53.390;-2.328;2023-11-22T13:28:52;3.42;;;0.73;;
24681;SDS011;12802;53.390;-2.328;2023-11-22T13:31:20;6.68;;;1.00;;
24681;SDS011;12802;53.390;-2.328;2023-11-22T13:33:47;7.32;;;0.90;;
24681;SDS011;12802;53.390;-2.328;2023-11-22T13:36:13;7.97;;;1.15;;
24681;SDS011;12802;53.390;-2.328;2023-11-22T13:38:40;3.35;;;0.50;;
24681;SDS011;12802;53.390;-2.328;2023-11-22T13:41:06;3.47;;;0.75;;
24681;SDS011;12802;53.390;-2.328;2023-11-22T13:43:32;4.80;;;0.75;;
24681;SDS011;12802;53.390;-2.328;2023-11-22T13:46:00;3.25;;;0.90;;
24681;SDS011;12802;53.390;-2.328;2023-11-22T13:48:26;9.60;;;1.10;;
24681;SDS011;12802;53.390;-2.328;2023-11-22T13:50:52;6.57;;;0.82;;
24681;SDS011;12802;53.390;-2.328;2023-11-22T13:53:18;6.28;;;1.35;;
24681;SDS011;12802;53.390;-2.328;2023-11-22T13:55:47;4.45;;;0.75;;
24681;SDS011;12802;53.390;-2.328;2023-11-22T13:58:15;5.25;;;0.88;;
24681;SDS011;12802;53.390;-2.328;2023-11-22T14:00:41;5.10;;;0.75;;
24681;SDS011;12802;53.390;-2.328;2023-11-22T14:03:08;6.18;;;0.95;;
24681;SDS011;12802;53.390;-2.328;2023-11-22T14:05:36;4.60;;;0.73;;
24681;SDS011;12802;53.390;-2.328;2023-11-22T14:08:03;8.27;;;0.93;;
24681;SDS011;12802;53.390;-2.328;2023-11-22T14:10:29;4.78;;;0.93;;
24681;SDS011;12802;53.390;-2.328;2023-11-22T14:12:55;4.75;;;0.75;;
24681;SDS011;12802;53.390;-2.328;2023-11-22T14:15:25;5.47;;;0.90;;
24681;SDS011;12802;53.390;-2.328;2023-11-22T14:17:55;11.88;;;1.23;;
24681;SDS011;12802;53.390;-2.328;2023-11-22T14:20:21;1.92;;;0.57;;
24681;SDS011;12802;53.390;-2.328;2023-11-22T14:22:49;5.88;;;0.95;;
24681;SDS011;12802;53.390;-2.328;2023-11-22T14:25:15;7.40;;;1.20;;
24681;SDS011;12802;53.390;-2.328;2023-11-22T14:27:42;5.22;;;1.13;;
24681;SDS011;12802;53.390;-2.328;2023-11-22T14:30:08;5.47;;;0.90;;
24681;SDS011;12802;53.390;-2.328;2023-11-22T14:32:36;7.85;;;1.20;;
24681;SDS011;12802;53.390;-2.328;2023-11-22T14:35:03;6.97;;;1.25;;
24681;SDS011;12802;53.390;-2.328;2023-11-22T14:37:29;6.43;;;1.00;;